createdAt,value
2018-10-03T00:01:46.989Z,3.80
2018-10-03T00:04:15.133Z,4.63
2018-10-03T00:06:43.286Z,5.07
2018-10-03T00:09:11.453Z,2.90
2018-10-03T00:11:39.634Z,2.73
2018-10-03T00:14:07.810Z,8.40
2018-10-03T00:16:36.253Z,2.33
2018-10-03T00:19:04.528Z,7.33
2018-10-03T00:21:32.678Z,4.87
2018-10-03T00:24:00.851Z,4.33
2018-10-03T00:26:29.967Z,3.53
2018-10-03T00:28:58.096Z,7.40
2018-10-03T00:31:26.241Z,5.20
2018-10-03T00:33:54.391Z,7.03
2018-10-03T00:36:22.509Z,5.90
2018-10-03T00:38:50.693Z,3.03
2018-10-03T00:41:18.841Z,4.43
2018-10-03T00:43:46.990Z,3.10
2018-10-03T00:46:15.125Z,3.63
2018-10-03T00:48:43.272Z,3.50
2018-10-03T00:51:11.405Z,4.07
2018-10-03T00:53:39.549Z,3.30
2018-10-03T00:56:07.714Z,6.73
2018-10-03T00:58:35.877Z,8.13
2018-10-03T01:01:04.009Z,3.43
2018-10-03T01:03:32.186Z,4.73
2018-10-03T01:06:00.410Z,4.70
2018-10-03T01:08:28.568Z,5.47
2018-10-03T01:10:56.717Z,4.97
2018-10-03T01:13:24.861Z,7.03
2018-10-03T01:15:53.026Z,5.10
2018-10-03T01:18:21.185Z,4.90
2018-10-03T01:20:49.369Z,5.37
2018-10-03T01:23:17.513Z,4.53
2018-10-03T01:25:45.721Z,5.67
2018-10-03T01:28:13.866Z,3.30
2018-10-03T01:30:41.997Z,2.90
2018-10-03T01:33:10.136Z,8.00
2018-10-03T01:35:38.520Z,7.67
2018-10-03T01:38:06.670Z,5.70
2018-10-03T01:40:34.818Z,4.30
2018-10-03T01:43:02.978Z,6.40
2018-10-03T01:45:31.181Z,6.63
2018-10-03T01:47:59.322Z,5.87
2018-10-03T01:50:27.474Z,6.17
2018-10-03T01:52:55.616Z,5.20
2018-10-03T01:55:23.785Z,2.80
2018-10-03T01:57:51.942Z,3.90
2018-10-03T02:00:20.096Z,4.47
2018-10-03T02:02:48.239Z,5.40
2018-10-03T02:05:16.373Z,3.30
2018-10-03T02:07:44.532Z,4.17
2018-10-03T02:10:12.676Z,5.73
2018-10-03T02:12:40.825Z,3.80
2018-10-03T02:15:08.961Z,4.70
2018-10-03T02:17:37.114Z,3.50
2018-10-03T02:20:05.985Z,2.87
2018-10-03T02:22:34.121Z,4.97
2018-10-03T02:25:02.285Z,5.80
2018-10-03T02:27:30.472Z,3.30
2018-10-03T02:29:58.609Z,2.83
2018-10-03T02:32:26.762Z,5.70
2018-10-03T02:34:54.916Z,6.77
2018-10-03T02:37:23.059Z,7.10
2018-10-03T02:39:51.205Z,7.27
2018-10-03T02:42:19.362Z,3.97
2018-10-03T02:44:47.513Z,6.97
2018-10-03T02:47:15.665Z,13.03
2018-10-03T02:49:43.814Z,5.67
2018-10-03T02:52:11.978Z,7.03
2018-10-03T02:54:40.113Z,4.80
2018-10-03T02:57:08.253Z,4.37
2018-10-03T02:59:36.395Z,4.50
2018-10-03T03:02:04.553Z,4.97
2018-10-03T03:04:32.703Z,6.00
2018-10-03T03:07:00.866Z,5.77
2018-10-03T03:09:29.022Z,3.67
2018-10-03T03:11:57.186Z,4.97
2018-10-03T03:14:25.342Z,3.67
2018-10-03T03:16:53.486Z,3.40
2018-10-03T03:19:21.641Z,6.57
2018-10-03T03:21:49.799Z,5.53
2018-10-03T03:24:17.970Z,4.00
2018-10-03T03:26:46.126Z,4.83
2018-10-03T03:29:14.260Z,10.43
2018-10-03T03:31:42.422Z,2.37
2018-10-03T03:34:10.562Z,4.23
2018-10-03T03:36:38.717Z,3.33
2018-10-03T03:39:07.549Z,3.10
2018-10-03T03:41:35.721Z,5.27
2018-10-03T03:44:03.892Z,8.70
2018-10-03T03:46:32.125Z,7.40
2018-10-03T03:49:00.294Z,3.83
2018-10-03T03:51:28.434Z,1.87
2018-10-03T03:53:56.581Z,4.10
2018-10-03T03:56:24.818Z,5.77
2018-10-03T03:58:52.960Z,2.43
2018-10-03T04:01:21.126Z,6.70
2018-10-03T04:03:49.338Z,6.73
2018-10-03T04:06:17.508Z,3.33
2018-10-03T04:08:45.657Z,3.93
2018-10-03T04:11:13.807Z,4.93
2018-10-03T04:13:41.972Z,3.20
2018-10-03T04:16:10.129Z,7.60
2018-10-03T04:18:38.282Z,3.90
2018-10-03T04:21:06.450Z,2.73
2018-10-03T04:23:34.582Z,5.10
2018-10-03T04:26:02.769Z,2.30
2018-10-03T04:28:31.498Z,3.37
2018-10-03T04:30:59.668Z,3.43
2018-10-03T04:33:27.823Z,2.67
2018-10-03T04:35:55.965Z,3.37
2018-10-03T04:38:24.222Z,8.63
2018-10-03T04:40:52.378Z,6.60
2018-10-03T04:43:20.538Z,2.37
2018-10-03T04:45:48.686Z,4.77
2018-10-03T04:48:16.824Z,2.27
2018-10-03T04:50:44.994Z,3.20
2018-10-03T04:53:13.137Z,6.40
2018-10-03T04:55:41.309Z,4.50
2018-10-03T04:58:09.458Z,3.30
2018-10-03T05:00:37.580Z,6.70
2018-10-03T05:03:06.101Z,1.90
2018-10-03T05:05:34.337Z,5.13
2018-10-03T05:08:02.490Z,3.77
2018-10-03T05:10:30.638Z,3.80
2018-10-03T05:12:58.794Z,4.33
2018-10-03T05:15:26.969Z,2.40
2018-10-03T05:17:55.120Z,2.63
2018-10-03T05:20:23.996Z,3.57
2018-10-03T05:22:52.132Z,3.63
2018-10-03T05:25:20.277Z,3.03
2018-10-03T05:27:48.427Z,5.93
2018-10-03T05:30:16.582Z,6.20
2018-10-03T05:32:44.721Z,3.53
2018-10-03T05:35:12.857Z,3.50
2018-10-03T05:37:40.993Z,3.60
2018-10-03T05:40:09.145Z,4.60
2018-10-03T05:42:37.305Z,6.27
2018-10-03T05:45:05.434Z,3.63
2018-10-03T05:47:33.627Z,2.93
2018-10-03T05:50:01.768Z,4.17
2018-10-03T05:52:30.048Z,4.97
2018-10-03T05:54:58.190Z,3.93
2018-10-03T05:57:26.343Z,3.60
2018-10-03T05:59:54.513Z,4.60
2018-10-03T06:02:22.703Z,3.80
2018-10-03T06:04:50.866Z,2.60
2018-10-03T06:07:19.009Z,4.20
2018-10-03T06:09:47.179Z,2.53
2018-10-03T06:12:15.462Z,3.90
2018-10-03T06:14:43.485Z,2.80
2018-10-03T06:17:11.642Z,3.80
2018-10-03T06:19:39.799Z,2.90
2018-10-03T06:22:07.961Z,1.90
2018-10-03T06:24:36.645Z,2.80
2018-10-03T06:27:04.790Z,3.10
2018-10-03T06:29:33.187Z,3.50
2018-10-03T06:32:01.376Z,2.30
2018-10-03T06:34:29.552Z,2.30
2018-10-03T06:36:57.706Z,3.27
2018-10-03T06:39:26.021Z,3.37
2018-10-03T06:41:54.487Z,2.03
2018-10-03T06:44:22.753Z,6.90
2018-10-03T06:46:50.957Z,3.83
2018-10-03T06:49:19.117Z,7.97
2018-10-03T06:51:47.271Z,5.77
2018-10-03T06:54:15.429Z,6.17
2018-10-03T06:56:43.626Z,2.70
2018-10-03T06:59:11.776Z,3.07
2018-10-03T07:01:39.933Z,3.60
2018-10-03T07:04:08.078Z,2.87
2018-10-03T07:06:36.248Z,3.43
2018-10-03T07:09:05.849Z,2.57
2018-10-03T07:11:34.007Z,4.10
2018-10-03T07:14:02.177Z,6.77
2018-10-03T07:16:30.321Z,2.83
2018-10-03T07:18:58.466Z,3.30
2018-10-03T07:21:26.609Z,3.10
2018-10-03T07:23:54.803Z,2.50
2018-10-03T07:26:23.134Z,2.53
2018-10-03T07:28:51.297Z,2.57
2018-10-03T07:31:19.457Z,3.90
2018-10-03T07:33:47.679Z,2.40
2018-10-03T07:36:15.938Z,4.40
2018-10-03T07:38:44.084Z,3.70
2018-10-03T07:41:12.266Z,4.27
2018-10-03T07:43:40.492Z,4.60
2018-10-03T07:46:08.650Z,2.47
2018-10-03T07:48:37.070Z,2.93
2018-10-03T07:51:05.290Z,2.37
2018-10-03T07:53:33.768Z,5.30
2018-10-03T07:56:01.969Z,2.90
2018-10-03T07:58:30.137Z,6.20
2018-10-03T08:01:04.705Z,4.43
2018-10-03T08:03:32.909Z,3.37
2018-10-03T08:06:01.092Z,1.70
2018-10-03T08:08:29.258Z,4.03
2018-10-03T08:10:57.421Z,3.50
2018-10-03T08:13:25.596Z,2.97
2018-10-03T08:15:53.829Z,4.23
2018-10-03T08:18:21.976Z,3.20
2018-10-03T08:20:50.144Z,3.60
2018-10-03T08:23:18.909Z,4.43
2018-10-03T08:25:47.069Z,3.93
2018-10-03T08:28:15.303Z,7.20
2018-10-03T08:30:43.450Z,4.90
2018-10-03T08:33:11.666Z,6.07
2018-10-03T08:35:39.756Z,3.47
2018-10-03T08:38:07.940Z,3.60
2018-10-03T08:40:36.210Z,5.10
2018-10-03T08:43:04.373Z,4.57
2018-10-03T08:45:32.578Z,3.20
2018-10-03T08:48:00.673Z,3.03
2018-10-03T08:50:28.845Z,4.50
2018-10-03T08:52:57.009Z,5.60
2018-10-03T08:55:25.189Z,5.60
2018-10-03T08:57:53.614Z,3.40
2018-10-03T09:00:21.738Z,5.03
2018-10-03T09:02:49.893Z,4.70
2018-10-03T09:05:18.039Z,5.00
2018-10-03T09:07:46.196Z,5.80
2018-10-03T09:10:14.362Z,4.93
2018-10-03T09:12:42.517Z,5.77
2018-10-03T09:15:10.656Z,3.00
2018-10-03T09:17:38.821Z,2.70
2018-10-03T09:20:06.985Z,3.80
2018-10-03T09:22:35.173Z,3.87
2018-10-03T09:25:03.313Z,3.40
2018-10-03T09:27:31.456Z,2.50
2018-10-03T09:29:59.605Z,3.13
2018-10-03T09:32:27.753Z,6.53
2018-10-03T09:34:55.896Z,3.90
2018-10-03T09:37:24.037Z,5.17
2018-10-03T09:39:52.182Z,6.70
2018-10-03T09:42:20.350Z,5.43
2018-10-03T09:44:48.539Z,4.00
2018-10-03T09:47:16.685Z,5.67
2018-10-03T09:49:44.833Z,3.07
2018-10-03T09:52:13.005Z,4.20
2018-10-03T09:54:41.138Z,5.00
2018-10-03T09:57:09.265Z,4.47
2018-10-03T09:59:37.424Z,5.63
2018-10-03T10:02:05.563Z,5.30
2018-10-03T10:04:33.727Z,4.37
2018-10-03T10:07:01.904Z,4.80
2018-10-03T10:09:30.082Z,4.93
2018-10-03T10:11:58.249Z,6.10
2018-10-03T10:14:26.409Z,4.63
2018-10-03T10:16:54.569Z,5.17
2018-10-03T10:19:22.749Z,4.40
2018-10-03T10:21:50.905Z,5.90
2018-10-03T10:24:19.055Z,5.10
2018-10-03T10:26:47.223Z,5.63
2018-10-03T10:29:15.380Z,5.40
2018-10-03T10:31:43.588Z,5.60
2018-10-03T10:34:11.716Z,7.27
2018-10-03T10:36:39.862Z,5.87
2018-10-03T10:39:09.581Z,5.80
2018-10-03T10:41:37.764Z,7.37
2018-10-03T10:44:05.947Z,5.57
2018-10-03T10:46:34.104Z,4.73
2018-10-03T10:49:02.252Z,6.63
2018-10-03T10:51:30.409Z,5.27
2018-10-03T10:53:58.590Z,4.30
2018-10-03T10:56:26.741Z,5.80
2018-10-03T10:58:55.117Z,6.27
2018-10-03T11:01:23.270Z,4.80
2018-10-03T11:03:51.417Z,4.37
2018-10-03T11:06:19.649Z,7.23
2018-10-03T11:08:48.897Z,8.00
2018-10-03T11:11:17.030Z,4.37
2018-10-03T11:13:45.189Z,12.70
2018-10-03T11:16:13.333Z,7.37
2018-10-03T11:18:41.493Z,9.07
2018-10-03T11:21:09.637Z,8.23
2018-10-03T11:23:37.985Z,9.30
2018-10-03T11:26:05.983Z,5.40
2018-10-03T11:28:34.158Z,5.13
2018-10-03T11:31:02.410Z,6.60
2018-10-03T11:33:30.569Z,5.00
2018-10-03T11:35:58.717Z,8.07
2018-10-03T11:38:26.871Z,7.07
2018-10-03T11:40:55.009Z,5.63
2018-10-03T11:43:23.149Z,6.30
2018-10-03T11:45:51.301Z,8.87
2018-10-03T11:48:19.522Z,6.43
2018-10-03T11:50:47.790Z,6.50
2018-10-03T11:53:16.273Z,6.83
2018-10-03T11:55:44.445Z,4.37
2018-10-03T11:58:12.633Z,4.70
2018-10-03T12:00:40.779Z,6.30
2018-10-03T12:03:08.969Z,6.57
2018-10-03T12:05:37.052Z,5.33
2018-10-03T12:08:05.214Z,8.47
2018-10-03T12:10:33.468Z,4.70
2018-10-03T12:13:01.614Z,8.73
2018-10-03T12:15:29.758Z,6.17
2018-10-03T12:17:57.944Z,5.47
2018-10-03T12:20:26.157Z,7.87
2018-10-03T12:22:54.326Z,7.63
2018-10-03T12:25:23.232Z,9.20
2018-10-03T12:27:51.356Z,9.43
2018-10-03T12:30:19.499Z,7.23
2018-10-03T12:32:47.661Z,7.20
2018-10-03T12:35:20.061Z,11.03
2018-10-03T12:37:48.220Z,6.00
2018-10-03T12:40:16.430Z,9.13
2018-10-03T12:42:44.602Z,5.50
2018-10-03T12:45:13.331Z,5.60
2018-10-03T12:47:41.510Z,7.33
2018-10-03T12:50:09.664Z,4.47
2018-10-03T12:52:37.844Z,7.83
2018-10-03T12:55:06.345Z,6.43
2018-10-03T12:57:34.488Z,6.23
2018-10-03T13:00:02.627Z,5.50
2018-10-03T13:02:30.815Z,4.10
2018-10-03T13:04:58.973Z,7.17
2018-10-03T13:07:27.122Z,6.77
2018-10-03T13:09:55.266Z,7.13
2018-10-03T13:12:23.403Z,4.10
2018-10-03T13:14:51.535Z,5.70
2018-10-03T13:17:19.693Z,5.90
2018-10-03T13:19:47.860Z,4.43
2018-10-03T13:22:16.015Z,4.80
2018-10-03T13:24:44.186Z,8.60
2018-10-03T13:27:12.331Z,4.97
2018-10-03T13:29:40.506Z,5.37
2018-10-03T13:32:08.682Z,7.93
2018-10-03T13:34:36.815Z,6.00
2018-10-03T13:37:05.016Z,5.63
2018-10-03T13:39:33.149Z,6.77
2018-10-03T13:42:01.320Z,4.83
2018-10-03T13:44:29.504Z,7.77
2018-10-03T13:46:57.657Z,7.40
2018-10-03T13:49:25.814Z,5.30
2018-10-03T13:51:53.968Z,4.97
2018-10-03T13:54:22.126Z,5.67
2018-10-03T13:56:50.295Z,4.47
2018-10-03T13:59:18.447Z,7.20
2018-10-03T14:01:46.642Z,7.30
2018-10-03T14:04:14.748Z,6.57
2018-10-03T14:06:42.889Z,6.33
2018-10-03T14:09:11.558Z,4.80
2018-10-03T14:11:39.895Z,7.43
2018-10-03T14:14:08.020Z,5.80
2018-10-03T14:16:36.190Z,4.90
2018-10-03T14:19:04.367Z,6.10
2018-10-03T14:21:32.557Z,6.23
2018-10-03T14:24:00.701Z,7.70
2018-10-03T14:26:28.849Z,4.60
2018-10-03T14:28:57.018Z,4.93
2018-10-03T14:31:25.217Z,4.83
2018-10-03T14:33:53.374Z,5.93
2018-10-03T14:36:21.525Z,3.93
2018-10-03T14:38:49.666Z,3.93
2018-10-03T14:41:17.853Z,5.20
2018-10-03T14:43:46.012Z,7.67
2018-10-03T14:46:14.153Z,6.00
2018-10-03T14:48:42.296Z,6.37
2018-10-03T14:51:10.454Z,5.50
2018-10-03T14:53:38.615Z,5.63
2018-10-03T14:56:07.137Z,7.40
2018-10-03T14:58:35.361Z,5.10
2018-10-03T15:01:03.450Z,4.33
2018-10-03T15:03:31.583Z,4.93
2018-10-03T15:05:59.727Z,5.70
2018-10-03T15:08:27.877Z,5.90
2018-10-03T15:10:56.013Z,4.80
2018-10-03T15:13:24.169Z,8.77
2018-10-03T15:15:52.316Z,5.23
2018-10-03T15:18:20.500Z,5.90
2018-10-03T15:20:49.441Z,15.07
2018-10-03T15:23:17.577Z,4.83
2018-10-03T15:25:45.746Z,4.90
2018-10-03T15:28:13.900Z,5.97
2018-10-03T15:30:42.044Z,6.87
2018-10-03T15:33:10.212Z,5.53
2018-10-03T15:35:38.353Z,6.50
2018-10-03T15:38:06.497Z,5.30
2018-10-03T15:40:34.703Z,5.70
2018-10-03T15:43:02.934Z,4.70
2018-10-03T15:45:31.101Z,4.83
2018-10-03T15:47:59.237Z,4.63
2018-10-03T15:50:27.372Z,5.57
2018-10-03T15:52:58.273Z,7.00
2018-10-03T15:55:26.567Z,4.70
2018-10-03T15:57:55.193Z,5.53
2018-10-03T16:00:23.335Z,5.43
2018-10-03T16:02:51.493Z,4.47
2018-10-03T16:05:19.645Z,4.93
2018-10-03T16:07:47.818Z,5.00
2018-10-03T16:10:15.956Z,7.87
2018-10-03T16:12:44.098Z,5.70
2018-10-03T16:15:12.270Z,6.47
2018-10-03T16:17:40.430Z,7.47
2018-10-03T16:20:08.664Z,7.23
2018-10-03T16:22:36.809Z,5.43
2018-10-03T16:25:05.702Z,6.70
2018-10-03T16:27:33.870Z,6.13
2018-10-03T16:30:02.021Z,6.53
2018-10-03T16:32:30.235Z,5.43
2018-10-03T16:34:58.321Z,7.73
2018-10-03T16:37:26.717Z,8.60
2018-10-03T16:39:54.869Z,6.00
2018-10-03T16:42:23.037Z,5.37
2018-10-03T16:44:51.254Z,6.97
2018-10-03T16:47:19.417Z,5.30
2018-10-03T16:49:47.620Z,5.87
2018-10-03T16:52:15.801Z,5.90
2018-10-03T16:54:43.957Z,6.50
2018-10-03T16:57:12.117Z,6.43
2018-10-03T16:59:40.281Z,9.97
2018-10-03T17:02:14.119Z,6.57
2018-10-03T17:04:42.269Z,6.43
2018-10-03T17:07:10.485Z,7.90
2018-10-03T17:09:38.731Z,6.57
2018-10-03T17:12:08.107Z,7.03
2018-10-03T17:14:39.607Z,8.07
2018-10-03T17:17:09.418Z,7.63
2018-10-03T17:19:37.802Z,7.30
2018-10-03T17:22:06.050Z,7.30
2018-10-03T17:24:35.413Z,8.67
2018-10-03T17:27:03.666Z,9.00
2018-10-03T17:29:31.831Z,11.43
2018-10-03T17:32:00.009Z,14.57
2018-10-03T17:34:28.177Z,13.20
2018-10-03T17:36:56.759Z,10.97
2018-10-03T17:39:25.867Z,13.30
2018-10-03T17:41:54.061Z,12.00
2018-10-03T17:44:23.125Z,11.47
2018-10-03T17:46:52.518Z,12.40
2018-10-03T17:49:20.686Z,10.70
2018-10-03T17:51:48.838Z,11.00
2018-10-03T17:54:17.013Z,11.33
2018-10-03T17:56:45.191Z,10.83
2018-10-03T17:59:13.390Z,10.07
2018-10-03T18:01:45.871Z,12.50
2018-10-03T18:04:15.808Z,13.30
2018-10-03T18:06:44.466Z,15.90
2018-10-03T18:09:12.862Z,18.90
2018-10-03T18:11:41.153Z,17.40
2018-10-03T18:14:09.426Z,12.50
2018-10-03T18:16:38.081Z,11.27
2018-10-03T18:19:06.357Z,10.93
2018-10-03T18:21:35.234Z,9.53
2018-10-03T18:24:04.649Z,11.80
2018-10-03T18:26:32.812Z,10.93
2018-10-03T18:29:00.997Z,10.70
2018-10-03T18:31:29.292Z,8.83
2018-10-03T18:33:57.336Z,9.60
2018-10-03T18:36:25.505Z,13.30
2018-10-03T18:38:53.661Z,8.77
2018-10-03T18:41:21.829Z,11.53
2018-10-03T18:43:50.002Z,9.63
2018-10-03T18:46:18.157Z,9.17
2018-10-03T18:48:46.377Z,9.10
2018-10-03T18:51:14.549Z,9.97
2018-10-03T18:53:42.701Z,11.70
2018-10-03T18:56:10.868Z,11.47
2018-10-03T18:58:39.237Z,9.50
2018-10-03T19:01:07.414Z,10.03
2018-10-03T19:03:35.797Z,8.27
2018-10-03T19:06:03.982Z,12.70
2018-10-03T19:08:32.134Z,9.33
2018-10-03T19:11:00.278Z,8.87
2018-10-03T19:13:29.504Z,7.70
2018-10-03T19:15:57.707Z,8.83
2018-10-03T19:18:26.048Z,10.03
2018-10-03T19:20:54.192Z,9.80
2018-10-03T19:23:22.354Z,11.23
2018-10-03T19:25:50.507Z,9.50
2018-10-03T19:28:18.662Z,9.70
2018-10-03T19:30:46.860Z,10.27
2018-10-03T19:33:15.102Z,9.90
2018-10-03T19:35:43.322Z,10.10
2018-10-03T19:38:11.433Z,9.07
2018-10-03T19:40:41.395Z,8.53
2018-10-03T19:43:11.851Z,8.53
2018-10-03T19:45:40.199Z,10.23
2018-10-03T19:48:09.102Z,12.37
2018-10-03T19:50:37.305Z,9.30
2018-10-03T19:53:05.471Z,9.23
2018-10-03T19:55:33.676Z,9.00
2018-10-03T19:58:01.877Z,9.47
2018-10-03T20:00:30.049Z,10.23
2018-10-03T20:02:58.223Z,12.37
2018-10-03T20:05:26.705Z,21.00
2018-10-03T20:07:54.908Z,11.63
2018-10-03T20:10:23.069Z,10.43
2018-10-03T20:12:51.276Z,9.40
2018-10-03T20:15:19.446Z,8.70
2018-10-03T20:17:47.604Z,9.37
2018-10-03T20:20:15.789Z,9.27
2018-10-03T20:22:43.954Z,10.47
2018-10-03T20:25:12.106Z,11.90
2018-10-03T20:27:40.257Z,11.23
2018-10-03T20:30:08.402Z,8.90
2018-10-03T20:32:36.564Z,10.43
2018-10-03T20:35:04.759Z,8.67
2018-10-03T20:37:32.896Z,9.60
2018-10-03T20:40:01.918Z,13.30
2018-10-03T20:42:31.984Z,11.93
2018-10-03T20:47:39.782Z,10.27
2018-10-03T20:50:08.249Z,13.90
2018-10-03T20:52:36.447Z,13.07
2018-10-03T20:55:04.670Z,12.20
2018-10-03T20:57:32.827Z,12.43
2018-10-03T21:00:01.368Z,13.00
2018-10-03T21:02:29.637Z,8.97
2018-10-03T21:04:58.318Z,11.70
2018-10-03T21:07:26.527Z,8.93
2018-10-03T21:09:54.699Z,9.77
2018-10-03T21:12:22.873Z,8.00
2018-10-03T21:14:51.017Z,7.33
2018-10-03T21:17:19.361Z,7.50
2018-10-03T21:19:47.550Z,11.07
2018-10-03T21:22:15.709Z,11.17
2018-10-03T21:24:43.914Z,8.40
2018-10-03T21:27:12.052Z,7.20
2018-10-03T21:29:40.325Z,8.10
2018-10-03T21:32:08.498Z,11.10
2018-10-03T21:34:36.674Z,9.97
2018-10-03T21:37:04.865Z,8.73
2018-10-03T21:39:33.018Z,8.57
2018-10-03T21:42:01.185Z,11.53
2018-10-03T21:44:29.370Z,9.30
2018-10-03T21:46:57.564Z,9.13
2018-10-03T21:49:25.716Z,7.77
2018-10-03T21:51:53.893Z,8.77
2018-10-03T21:54:22.097Z,9.53
2018-10-03T21:56:50.238Z,13.10
2018-10-03T21:59:18.442Z,9.10
2018-10-03T22:01:46.577Z,7.40
2018-10-03T22:04:14.722Z,8.07
2018-10-03T22:06:42.902Z,7.93
2018-10-03T22:09:11.060Z,7.77
2018-10-03T22:11:39.217Z,7.13
2018-10-03T22:14:07.434Z,7.40
2018-10-03T22:16:35.713Z,7.63
2018-10-03T22:19:03.882Z,12.00
2018-10-03T22:21:32.032Z,6.47
2018-10-03T22:24:00.237Z,8.67
2018-10-03T22:26:28.385Z,7.10
2018-10-03T22:28:56.571Z,7.30
2018-10-03T22:31:24.747Z,6.60
2018-10-03T22:33:52.951Z,6.60
2018-10-03T22:36:21.107Z,9.13
2018-10-03T22:38:49.247Z,11.97
2018-10-03T22:41:17.414Z,13.83
2018-10-03T22:43:45.553Z,10.30
2018-10-03T22:46:13.693Z,9.90
2018-10-03T22:48:41.845Z,11.00
2018-10-03T22:51:10.009Z,10.37
2018-10-03T22:53:38.150Z,10.17
2018-10-03T22:56:06.321Z,10.23
2018-10-03T22:58:34.484Z,7.00
2018-10-03T23:01:02.651Z,13.20
2018-10-03T23:03:30.803Z,7.60
2018-10-03T23:05:59.020Z,8.00
2018-10-03T23:08:27.152Z,6.67
2018-10-03T23:10:55.297Z,7.80
2018-10-03T23:13:23.458Z,9.23
2018-10-03T23:15:51.602Z,6.90
2018-10-03T23:18:19.773Z,7.23
2018-10-03T23:20:47.934Z,6.70
2018-10-03T23:23:16.074Z,9.03
2018-10-03T23:25:44.210Z,6.80
2018-10-03T23:28:12.357Z,7.27
2018-10-03T23:30:40.503Z,7.50
2018-10-03T23:33:08.677Z,6.77
2018-10-03T23:35:36.833Z,6.90
2018-10-03T23:38:05.145Z,7.30
2018-10-03T23:40:33.324Z,7.83
2018-10-03T23:43:01.570Z,7.57
2018-10-03T23:45:29.729Z,7.40
2018-10-03T23:47:57.893Z,8.23
2018-10-03T23:50:26.065Z,7.03
2018-10-03T23:52:54.210Z,6.37
2018-10-03T23:55:22.376Z,7.43
2018-10-03T23:57:50.533Z,8.03
